Time;durP1;ratioP1;P1;durP2;ratioP2;P2;SDS_P1;SDS_P2;PMS_P1;PMS_P2;Temp;Humidity;BMP_temperature;BMP_pressure;BME280_temperature;BME280_humidity;BME280_pressure;Samples;Min_cycle;Max_cycle;Signal;HPM_P1;HPM_P2
2022/10/21 00:01:04;;;;;;;31.15;16.33;;;;;;;4.90;64.00;99039.22;5056948;28;20028;-69
2022/10/21 00:03:30;;;;;;;27.35;15.45;;;;;;;4.90;64.32;99031.06;5059865;28;20517;-69
2022/10/21 00:05:55;;;;;;;27.90;15.43;;;;;;;4.91;63.88;99032.72;5063338;28;20032;-69
2022/10/21 00:08:21;;;;;;;26.52;15.05;;;;;;;4.90;63.77;99035.69;5065657;28;20012;-69
2022/10/21 00:10:51;;;;;;;24.30;14.50;;;;;;;4.90;64.55;99036.50;5064649;28;20097;-69
2022/10/21 00:13:16;;;;;;;;;;;;;;;4.91;64.54;99040.06;5066109;28;20029;-69
2022/10/21 00:15:42;;;;;;;27.98;15.45;;;;;;;4.90;64.20;99024.81;5065641;28;19939;-69
2022/10/21 00:18:07;;;;;;;30.33;16.23;;;;;;;4.86;64.30;99035.38;5059454;28;20392;-69
2022/10/21 00:20:32;;;;;;;34.35;18.38;;;;;;;4.86;64.37;99031.81;5062141;28;20029;-69
2022/10/21 00:22:58;;;;;;;28.73;16.65;;;;;;;4.83;64.17;99024.13;5065622;28;20111;-69
2022/10/21 00:25:23;;;;;;;34.92;17.80;;;;;;;4.79;64.29;99021.09;5066583;28;20044;-69
2022/10/21 00:27:48;;;;;;;40.88;20.13;;;;;;;4.77;63.90;99009.66;5062043;28;20028;-69
2022/10/21 00:30:14;;;;;;;40.60;20.02;;;;;;;4.72;64.42;99009.56;5064465;28;20060;-69
2022/10/21 00:32:39;;;;;;;41.50;20.13;;;;;;;4.67;63.92;99015.72;5069014;28;20029;-69
2022/10/21 00:35:05;;;;;;;37.55;19.33;;;;;;;4.64;64.70;99018.09;5063049;28;20178;-69
2022/10/21 00:37:31;;;;;;;39.22;19.10;;;;;;;4.61;63.80;99019.41;5064205;28;20036;-69
2022/10/21 00:39:57;;;;;;;36.08;18.17;;;;;;;4.56;64.16;99011.97;5067959;28;20030;-70
2022/10/21 00:42:38;;;;;;;37.83;18.73;;;;;;;4.54;63.99;99007.88;5060710;28;20025;-69
2022/10/21 00:45:03;;;;;;;34.47;17.38;;;;;;;4.55;64.83;99006.78;5062502;28;20044;-69
2022/10/21 00:47:30;;;;;;;36.42;19.17;;;;;;;4.51;64.26;98995.56;5066042;28;20056;-69
2022/10/21 00:50:00;;;;;;;44.15;21.02;;;;;;;4.48;64.54;98993.38;5070557;28;20024;-70
2022/10/21 00:52:28;;;;;;;40.03;20.40;;;;;;;4.44;64.19;98987.59;5066612;28;20031;-69
2022/10/21 00:54:57;;;;;;;40.13;20.92;;;;;;;4.40;64.23;98985.59;5053204;28;20108;-69
2022/10/21 00:57:25;;;;;;;41.28;20.42;;;;;;;4.36;64.88;98977.09;5071383;28;20029;-70
2022/10/21 00:59:58;;;;;;;34.70;19.98;;;;;;;4.33;64.48;98983.03;5072630;28;20027;-69
2022/10/21 01:02:25;;;;;;;34.15;20.27;;;;;;;4.30;63.96;98969.94;5073114;28;20039;-69
2022/10/21 01:04:58;;;;;;;32.17;18.38;;;;;;;4.27;64.36;98962.28;5074888;28;20024;-69
2022/10/21 01:07:24;;;;;;;32.03;17.85;;;;;;;4.22;64.10;98963.00;5067744;28;20391;-69
2022/10/21 01:09:50;;;;;;;29.00;17.42;;;;;;;4.18;64.15;98959.13;5071354;28;20032;-69
2022/10/21 01:12:32;;;;;;;29.25;17.75;;;;;;;4.13;64.51;98964.44;5062899;28;20024;-69
2022/10/21 01:15:24;;;;;;;29.55;17.60;;;;;;;4.08;64.37;98961.63;5055887;28;20025;-69
2022/10/21 01:18:20;;;;;;;27.08;16.60;;;;;;;4.07;64.91;98966.25;5048623;28;20037;-69
2022/10/21 01:21:07;;;;;;;25.13;15.48;;;;;;;4.02;65.00;98960.72;5065704;28;21382;-69
2022/10/21 01:23:51;;;;;;;28.80;17.48;;;;;;;4.00;64.82;98962.84;5066758;28;20389;-69
2022/10/21 01:26:53;;;;;;;30.98;18.15;;;;;;;3.96;64.39;98959.78;5071863;28;20052;-69
2022/10/21 01:29:37;;;;;;;32.55;18.23;;;;;;;3.95;64.86;98962.72;5056745;28;20028;-69
2022/10/21 01:32:20;;;;;;;28.98;17.52;;;;;;;3.92;64.36;98971.34;5062525;28;20063;-70
2022/10/21 01:35:07;;;;;;;29.60;17.17;;;;;;;3.90;64.38;98970.75;5072331;28;20028;-69
2022/10/21 01:37:42;;;;;;;33.58;17.80;;;;;;;3.87;64.47;98962.03;5074864;28;20032;-69
2022/10/21 01:40:15;;;;;;;31.83;17.75;;;;;;;3.86;64.43;98962.28;5086626;28;20036;-70
2022/10/21 01:42:52;;;;;;;31.52;17.38;;;;;;;3.87;65.27;98961.22;5077808;28;20123;-69
2022/10/21 01:45:33;;;;;;;32.35;17.83;;;;;;;3.86;65.01;98954.16;5071163;28;20032;-69
2022/10/21 01:48:13;;;;;;;33.65;17.90;;;;;;;3.83;64.96;98958.19;5072869;28;20637;-70
2022/10/21 01:50:46;;;;;;;33.60;18.02;;;;;;;3.82;64.62;98951.09;5068692;28;20474;-70
2022/10/21 01:53:14;;;;;;;34.50;17.98;;;;;;;3.82;64.31;98956.53;5065151;28;20082;-69
2022/10/21 01:55:40;;;;;;;30.85;16.75;;;;;;;3.79;64.54;98948.03;5084299;28;20032;-69
2022/10/21 01:58:11;;;;;;;31.23;16.80;;;;;;;3.77;64.85;98952.88;5067691;28;20474;-69
2022/10/21 02:00:39;;;;;;;29.10;16.95;;;;;;;3.72;64.38;98943.56;5070165;28;20029;-70
2022/10/21 02:03:10;;;;;;;31.90;16.20;;;;;;;3.68;64.50;98947.00;5067737;28;20102;-69
2022/10/21 02:05:36;;;;;;;26.48;16.58;;;;;;;3.64;65.01;98943.09;5069406;28;20024;-69
2022/10/21 02:08:01;;;;;;;30.42;16.08;;;;;;;3.58;64.11;98951.13;5073984;28;20028;-70
2022/10/21 02:10:33;;;;;;;33.55;17.77;;;;;;;3.56;65.06;98938.88;5072921;28;20024;-69
2022/10/21 02:13:03;;;;;;;33.00;16.30;;;;;;;3.53;64.69;98920.38;5069867;28;20032;-69
2022/10/21 02:15:31;;;;;;;31.27;17.00;;;;;;;3.51;64.26;98919.78;5072264;28;20595;-69
2022/10/21 02:18:05;;;;;;;35.42;18.65;;;;;;;3.47;64.75;98924.84;5071446;28;20113;-69
2022/10/21 02:20:35;;;;;;;41.03;21.00;;;;;;;3.45;64.82;98923.44;5077337;28;20035;-69
2022/10/21 02:23:02;;;;;;;39.83;20.75;;;;;;;3.40;64.22;98916.03;5072830;28;20051;-69
2022/10/21 02:25:33;;;;;;;37.90;19.92;;;;;;;3.36;64.26;98917.56;5074194;28;20024;-69
2022/10/21 02:27:59;;;;;;;39.60;20.60;;;;;;;3.35;64.59;98910.50;5072193;28;20020;-69
2022/10/21 02:30:29;;;;;;;35.45;19.50;;;;;;;3.32;64.99;98917.19;5071712;28;20024;-69
2022/10/21 02:33:12;;;;;;;37.30;20.63;;;;;;;3.30;65.36;98922.03;5033320;28;20041;-70
2022/10/21 02:35:51;;;;;;;41.67;21.25;;;;;;;3.30;64.31;98924.75;5052239;28;20119;-69
2022/10/21 02:38:26;;;;;;;40.83;21.15;;;;;;;3.30;65.36;98922.03;5050405;28;20037;-69
2022/10/21 02:41:00;;;;;;;43.60;21.50;;;;;;;3.29;64.77;98917.66;5051202;28;20493;-69
2022/10/21 02:43:36;;;;;;;38.92;20.65;;;;;;;3.29;65.29;98901.41;5048690;28;20546;-69
2022/10/21 02:46:11;;;;;;;37.88;20.00;;;;;;;3.32;65.37;98902.84;5055994;28;20123;-69
2022/10/21 02:48:39;;;;;;;33.50;18.80;;;;;;;3.32;64.58;98894.69;5056967;28;20040;-69
2022/10/21 02:51:06;;;;;;;33.60;18.17;;;;;;;3.33;65.03;98890.94;5051030;28;20078;-69
2022/10/21 02:53:33;;;;;;;35.88;19.17;;;;;;;3.33;65.35;98886.31;5062675;28;20027;-69
2022/10/21 02:55:58;;;;;;;40.45;19.52;;;;;;;3.35;65.54;98886.09;5063199;28;20048;-69
2022/10/21 02:58:24;;;;;;;36.05;19.45;;;;;;;3.34;65.15;98887.97;5062891;28;20072;-69
2022/10/21 03:00:50;;;;;;;30.40;16.80;;;;;;;3.35;64.81;98886.09;5051013;28;20037;-69
2022/10/21 03:03:15;;;;;;;31.33;16.50;;;;;;;3.36;65.26;98876.91;5042302;28;20021;-70
2022/10/21 03:05:41;;;;;;;29.55;16.33;;;;;;;3.37;65.20;98882.06;5064993;28;20033;-69
2022/10/21 03:08:06;;;;;;;31.10;17.00;;;;;;;3.36;64.88;98877.72;5064479;28;20033;-69
2022/10/21 03:10:31;;;;;;;28.80;17.30;;;;;;;3.36;65.58;98877.72;5050495;28;20659;-68
2022/10/21 03:12:57;;;;;;;28.42;16.25;;;;;;;3.39;65.28;98884.56;5049699;28;20127;-69
2022/10/21 03:15:22;;;;;;;28.45;16.58;;;;;;;3.38;65.93;98883.72;5049281;28;20029;-68
2022/10/21 03:17:48;;;;;;;27.38;15.88;;;;;;;3.40;65.33;98886.22;5050644;28;20033;-67
2022/10/21 03:20:14;;;;;;;30.00;17.50;;;;;;;3.41;66.01;98877.81;5051906;28;20103;-69
2022/10/21 03:22:39;;;;;;;29.52;16.20;;;;;;;3.39;65.92;98879.94;5058899;28;20725;-69
2022/10/21 03:25:05;;;;;;;29.23;15.88;;;;;;;3.41;65.71;98882.44;5046271;28;20109;-68
2022/10/21 03:27:31;;;;;;;28.30;16.15;;;;;;;3.42;65.30;98870.53;5050863;28;20429;-68
2022/10/21 03:29:57;;;;;;;28.35;16.27;;;;;;;3.44;65.52;98860.25;5047423;28;20025;-69
2022/10/21 03:32:22;;;;;;;30.08;16.50;;;;;;;3.44;65.35;98865.69;5062244;28;20398;-68
2022/10/21 03:34:47;;;;;;;32.35;17.10;;;;;;;3.42;65.83;98867.81;5065855;28;20044;-68
2022/10/21 03:37:13;;;;;;;30.83;18.05;;;;;;;3.42;65.84;98865.09;5066525;28;20040;-68
2022/10/21 03:39:38;;;;;;;33.33;17.73;;;;;;;3.40;65.62;98865.31;5069149;28;20028;-68
2022/10/21 03:42:04;;;;;;;29.88;17.05;;;;;;;3.41;66.08;98880.53;5069662;28;20028;-68
2022/10/21 03:44:29;;;;;;;28.73;16.92;;;;;;;3.41;65.99;98877.81;5057439;28;20482;-68
2022/10/21 03:46:54;;;;;;;28.95;16.83;;;;;;;3.43;66.15;98870.28;5066890;28;20032;-68
2022/10/21 03:49:20;;;;;;;31.08;17.17;;;;;;;3.43;66.16;98872.97;5048911;28;20115;-68
2022/10/21 03:51:45;;;;;;;28.58;16.65;;;;;;;3.41;65.54;98869.69;5075086;28;20063;-68
2022/10/21 03:54:10;;;;;;;29.42;17.55;;;;;;;3.41;65.64;98863.47;5079655;28;20350;-68
2022/10/21 03:56:36;;;;;;;31.10;17.30;;;;;;;3.42;65.71;98863.19;5070848;28;20402;-68
2022/10/21 03:59:01;;;;;;;31.42;18.65;;;;;;;3.43;65.40;98877.59;5064414;28;20493;-69
2022/10/21 04:01:27;;;;;;;34.47;19.08;;;;;;;3.44;65.46;98868.41;5072975;28;20621;-68
2022/10/21 04:03:52;;;;;;;30.92;17.52;;;;;;;3.42;65.16;98874.03;5072288;28;20028;-69
2022/10/21 04:06:18;;;;;;;32.13;18.15;;;;;;;3.42;65.18;98874.03;5067437;28;20031;-68
2022/10/21 04:08:43;;;;;;;34.00;17.88;;;;;;;3.45;65.79;98874.63;5067410;28;20031;-69
2022/10/21 04:11:09;;;;;;;33.13;18.00;;;;;;;3.43;65.95;98874.88;5069287;28;20569;-68
2022/10/21 04:13:34;;;;;;;34.45;17.73;;;;;;;3.42;65.41;98865.91;5067916;28;20115;-68
2022/10/21 04:16:01;;;;;;;33.17;17.63;;;;;;;3.43;65.46;98877.59;5068693;28;20028;-68
2022/10/21 04:18:27;;;;;;;32.03;18.27;;;;;;;3.43;65.27;98864.03;5068165;28;20119;-69
2022/10/21 04:20:52;;;;;;;33.05;17.95;;;;;;;3.45;65.95;98861.06;5068859;28;20505;-69
2022/10/21 04:23:18;;;;;;;33.60;19.00;;;;;;;3.44;65.95;98849.41;5084116;28;20028;-69
2022/10/21 04:25:44;;;;;;;32.45;18.35;;;;;;;3.43;65.33;98862.13;5086957;28;20095;-68
2022/10/21 04:28:09;;;;;;;37.35;19.02;;;;;;;3.43;65.75;98858.63;5066204;28;20024;-68
2022/10/21 04:30:35;;;;;;;33.88;19.65;;;;;;;3.43;65.92;98856.72;5065609;28;20052;-68
2022/10/21 04:33:01;;;;;;;33.20;18.80;;;;;;;3.45;66.32;98855.66;5068075;28;20074;-68
2022/10/21 04:35:26;;;;;;;32.50;19.05;;;;;;;3.44;65.51;98854.84;5067558;28;20029;-68
2022/10/21 04:37:51;;;;;;;33.13;18.40;;;;;;;3.45;65.99;98861.91;5067890;28;20553;-68
2022/10/21 04:40:17;;;;;;;32.70;17.52;;;;;;;3.47;66.09;98848.91;5078082;28;20024;-68
2022/10/21 04:42:47;;;;;;;32.90;18.67;;;;;;;3.48;65.85;98853.28;5070278;28;20371;-68
2022/10/21 04:45:12;;;;;;;;;;;;;;;3.51;65.58;98855.50;5074424;28;20020;-68
2022/10/21 04:47:37;;;;;;;29.33;17.00;;;;;;;3.55;65.99;98850.44;5090226;28;20007;-68
2022/10/21 04:50:03;;;;;;;34.35;18.35;;;;;;;3.53;66.62;98845.25;5090402;28;20111;-68
2022/10/21 04:52:28;;;;;;;33.03;18.98;;;;;;;3.53;65.77;98839.81;5086812;28;20029;-69
2022/10/21 04:54:54;;;;;;;32.03;18.65;;;;;;;3.53;66.56;98836.28;5073516;28;20031;-68
2022/10/21 04:57:19;;;;;;;35.40;18.73;;;;;;;3.55;66.69;98851.25;5072068;28;20077;-68
2022/10/21 04:59:44;;;;;;;35.83;19.38;;;;;;;3.58;66.58;98844.53;5073385;28;20457;-68
2022/10/21 05:02:10;;;;;;;36.05;19.55;;;;;;;3.60;65.71;98855.97;5072862;28;20077;-69
2022/10/21 05:04:35;;;;;;;34.75;18.52;;;;;;;3.60;66.49;98855.13;5072120;28;20025;-68
2022/10/21 05:07:01;;;;;;;36.88;19.17;;;;;;;3.63;66.45;98852.78;5080739;28;20067;-69
2022/10/21 05:09:26;;;;;;;40.80;20.80;;;;;;;3.65;66.31;98849.81;5089878;28;20032;-69
2022/10/21 05:11:51;;;;;;;36.88;18.73;;;;;;;3.67;66.32;98839.53;5077023;28;20016;-69
2022/10/21 05:14:17;;;;;;;35.40;19.73;;;;;;;3.69;66.34;98835.50;5093699;28;20035;-68
2022/10/21 05:16:42;;;;;;;50.95;28.25;;;;;;;3.71;66.02;98833.38;5082906;28;20036;-68
2022/10/21 05:19:07;;;;;;;51.42;26.80;;;;;;;3.72;66.39;98836.94;5071174;28;20028;-69
2022/10/21 05:21:33;;;;;;;44.90;24.67;;;;;;;3.75;66.30;98850.03;5070900;28;20115;-69
2022/10/21 05:23:58;;;;;;;43.28;23.35;;;;;;;3.76;66.01;98832.69;5089932;28;20063;-69
2022/10/21 05:26:23;;;;;;;40.88;23.73;;;;;;;3.75;65.82;98820.19;5090994;28;20036;-68
2022/10/21 05:28:49;;;;;;;40.67;22.58;;;;;;;3.77;65.92;98839.75;5075362;28;20050;-68
2022/10/21 05:31:14;;;;;;;46.80;23.95;;;;;;;3.79;66.10;98836.78;5067946;28;20051;-68
2022/10/21 05:33:40;;;;;;;41.13;23.25;;;;;;;3.80;66.06;98833.00;5069540;28;20025;-68
2022/10/21 05:36:07;;;;;;;50.53;26.30;;;;;;;3.83;66.81;98832.53;5072076;28;20065;-68
2022/10/21 05:38:33;;;;;;;57.67;30.95;;;;;;;3.85;66.76;98839.38;5068479;28;20038;-68
2022/10/21 05:40:59;;;;;;;77.13;37.47;;;;;;;3.85;66.50;98844.78;5071911;28;20111;-67
2022/10/21 05:43:24;;;;;;;71.90;35.75;;;;;;;3.85;65.98;98833.09;5073203;28;20392;-68
2022/10/21 05:45:50;;;;;;;62.42;32.38;;;;;;;3.87;66.91;98837.22;5065406;28;20052;-68
2022/10/21 05:48:18;;;;;;;55.45;29.27;;;;;;;3.89;66.61;98836.97;5064438;28;20025;-68
2022/10/21 05:50:44;;;;;;;50.25;25.73;;;;;;;3.90;66.59;98837.78;5068798;28;20378;-68
2022/10/21 05:53:11;;;;;;;52.65;26.58;;;;;;;3.90;66.10;98837.78;5093469;28;20051;-69
2022/10/21 05:55:36;;;;;;;48.17;24.88;;;;;;;3.92;66.76;98841.09;5064854;28;20020;-68
2022/10/21 05:58:01;;;;;;;51.35;26.17;;;;;;;3.91;66.07;98842.16;5072280;28;20035;-69
2022/10/21 06:00:27;;;;;;;51.65;27.88;;;;;;;3.91;66.52;98844.88;5060913;28;20057;-67
2022/10/21 06:02:52;;;;;;;54.75;29.02;;;;;;;3.89;66.51;98834.28;5068671;28;20027;-68
2022/10/21 06:05:18;;;;;;;58.13;29.52;;;;;;;3.91;66.23;98832.13;5070601;28;20025;-68
2022/10/21 06:07:43;;;;;;;56.90;30.92;;;;;;;3.92;67.12;98841.09;5068544;28;20029;-67
2022/10/21 06:10:10;;;;;;;55.00;31.42;;;;;;;3.93;66.67;98831.88;5076972;28;20232;-68
2022/10/21 06:12:36;;;;;;;60.45;32.65;;;;;;;3.92;66.88;98833.78;5083868;28;20082;-67
2022/10/21 06:15:02;;;;;;;57.20;31.00;;;;;;;3.95;67.12;98840.59;5071142;28;20024;-68
2022/10/21 06:17:28;;;;;;;53.63;30.17;;;;;;;3.97;67.00;98841.19;5072062;28;20048;-67
2022/10/21 06:19:53;;;;;;;61.58;31.58;;;;;;;3.99;66.49;98839.06;5090982;28;20031;-67
2022/10/21 06:22:18;;;;;;;63.55;33.00;;;;;;;4.03;67.03;98842.94;5083508;28;20021;-67
2022/10/21 06:24:45;;;;;;;73.55;37.67;;;;;;;4.07;66.72;98837.84;5066849;28;20031;-68
2022/10/21 06:27:10;;;;;;;80.22;43.85;;;;;;;4.11;66.75;98839.81;5072354;28;20024;-68
2022/10/21 06:29:36;;;;;;;71.28;38.03;;;;;;;4.13;66.93;98837.69;5070478;28;20382;-67
2022/10/21 06:32:01;;;;;;;68.22;36.50;;;;;;;4.17;66.49;98838.00;5078660;28;20077;-67
2022/10/21 06:34:27;;;;;;;69.28;36.17;;;;;;;4.20;66.48;98832.09;5076044;28;20029;-69
2022/10/21 06:36:52;;;;;;;58.67;33.72;;;;;;;4.22;67.08;98829.97;5089800;28;20059;-68
2022/10/21 06:39:17;;;;;;;61.67;31.88;;;;;;;4.28;67.09;98825.47;5081725;28;20394;-68
2022/10/21 06:41:43;;;;;;;55.42;31.63;;;;;;;4.28;66.62;98820.84;5077819;28;20145;-68
2022/10/21 06:44:08;;;;;;;62.17;32.70;;;;;;;4.31;67.39;98822.22;5068621;28;20032;-69
2022/10/21 06:46:33;;;;;;;81.47;38.40;;;;;;;4.36;67.48;98806.00;5070180;28;20239;-71
2022/10/21 06:48:59;;;;;;;81.57;40.83;;;;;;;4.47;67.80;98788.00;5054151;28;20034;-70
2022/10/21 06:51:24;;;;;;;59.88;32.03;;;;;;;4.60;67.90;98803.16;5073878;28;20033;-70
2022/10/21 06:53:55;;;;;;;47.40;26.88;;;;;;;4.73;68.33;98788.38;5080605;28;20028;-72
2022/10/21 06:56:21;;;;;;;48.17;26.60;;;;;;;4.87;68.28;98803.28;5069489;28;20158;-70
2022/10/21 06:58:48;;;;;;;46.78;24.80;;;;;;;5.01;68.37;98794.75;5066960;28;20025;-70
2022/10/21 07:01:23;;;;;;;48.35;25.33;;;;;;;5.16;68.44;98791.41;5066783;28;20459;-75
2022/10/21 07:03:49;;;;;;;43.67;24.73;;;;;;;5.32;68.76;98786.97;5069395;28;20028;-71
2022/10/21 07:06:14;;;;;;;42.97;23.77;;;;;;;5.49;68.36;98795.88;5065624;28;20122;-69
2022/10/21 07:08:40;;;;;;;35.40;20.15;;;;;;;5.66;68.69;98790.34;5079967;28;20070;-71
2022/10/21 07:11:06;;;;;;;33.50;19.48;;;;;;;5.82;68.23;98785.88;5080346;28;20032;-69
2022/10/21 07:13:34;;;;;;;31.65;18.38;;;;;;;5.99;68.63;98781.41;5064855;28;20589;-71
2022/10/21 07:15:59;;;;;;;27.95;16.83;;;;;;;6.14;68.84;98784.31;5075325;28;20024;-71
2022/10/21 07:18:25;;;;;;;28.27;17.00;;;;;;;6.27;68.38;98784.97;5077627;28;20443;-69
2022/10/21 07:20:50;;;;;;;27.23;15.02;;;;;;;6.38;68.60;98784.78;5070294;28;20501;-71
2022/10/21 07:23:16;;;;;;;23.45;14.48;;;;;;;6.47;68.09;98785.13;5088409;28;20028;-69
2022/10/21 07:25:42;;;;;;;23.35;14.00;;;;;;;6.60;68.57;98786.56;5069648;28;20466;-69
2022/10/21 07:28:07;;;;;;;22.63;13.77;;;;;;;6.71;68.39;98782.03;5074177;28;20037;-68
2022/10/21 07:30:41;;;;;;;22.88;13.20;;;;;;;6.80;68.61;98776.91;5072846;28;20028;-69
2022/10/21 07:33:07;;;;;;;27.17;13.48;;;;;;;6.92;68.70;98771.22;5072796;28;20029;-68
2022/10/21 07:35:33;;;;;;;27.83;15.38;;;;;;;7.04;68.39;98760.94;5077639;28;20029;-67
2022/10/21 07:37:58;;;;;;;38.50;17.70;;;;;;;7.13;68.29;98758.53;5067409;28;20562;-67
2022/10/21 07:40:23;;;;;;;31.17;16.63;;;;;;;7.26;68.16;98760.75;5065144;28;20032;-69
2022/10/21 07:42:49;;;;;;;26.67;15.60;;;;;;;7.36;68.21;98756.41;5063085;28;20116;-67
2022/10/21 07:45:14;;;;;;;24.40;15.00;;;;;;;7.42;68.04;98750.72;5069185;28;20020;-68
2022/10/21 07:47:40;;;;;;;23.02;13.40;;;;;;;7.52;68.09;98747.19;5068184;28;20013;-67
2022/10/21 07:50:06;;;;;;;23.88;14.32;;;;;;;7.65;67.97;98747.78;5069737;28;20107;-66
2022/10/21 07:52:31;;;;;;;25.20;14.73;;;;;;;7.76;68.08;98743.94;5074272;28;20069;-68
2022/10/21 07:54:56;;;;;;;28.52;16.42;;;;;;;7.83;68.25;98733.59;5076020;28;20024;-67
2022/10/21 07:57:22;;;;;;;32.47;17.38;;;;;;;7.90;67.59;98725.97;5062583;28;20040;-68
2022/10/21 07:59:47;;;;;;;31.45;19.48;;;;;;;7.99;67.69;98728.16;5078366;28;20033;-66
2022/10/21 08:02:14;;;;;;;29.77;18.48;;;;;;;8.07;67.55;98732.25;5069153;28;20016;-68
2022/10/21 08:04:39;;;;;;;31.88;18.95;;;;;;;8.17;68.32;98727.59;5084273;28;20039;-67
2022/10/21 08:07:05;;;;;;;34.38;19.17;;;;;;;8.24;67.86;98730.06;5072952;28;20032;-66
2022/10/21 08:09:30;;;;;;;28.80;17.60;;;;;;;8.31;67.79;98718.84;5068414;28;20477;-67
2022/10/21 08:11:56;;;;;;;29.92;16.75;;;;;;;8.39;67.67;98712.00;5067985;28;20021;-67
2022/10/21 08:14:21;;;;;;;34.38;17.58;;;;;;;8.46;67.23;98710.66;5067688;28;20034;-68
2022/10/21 08:16:51;;;;;;;30.98;16.63;;;;;;;8.48;67.00;98700.28;5067131;28;20028;-68
2022/10/21 08:19:20;;;;;;;31.25;17.08;;;;;;;8.56;67.29;98687.97;5067505;28;20172;-68
2022/10/21 08:21:45;;;;;;;31.27;16.23;;;;;;;8.63;66.54;98693.13;5067871;28;20522;-67
2022/10/21 08:24:10;;;;;;;27.67;16.08;;;;;;;8.70;67.24;98690.91;5068159;28;20027;-68
2022/10/21 08:26:36;;;;;;;28.25;16.02;;;;;;;8.77;67.25;98693.34;5067970;28;20035;-67
2022/10/21 08:29:03;;;;;;;26.50;15.40;;;;;;;8.83;66.99;98689.50;5079840;28;20046;-67
2022/10/21 08:31:29;;;;;;;29.58;17.02;;;;;;;8.86;66.21;98680.75;5088987;28;20573;-69
2022/10/21 08:33:54;;;;;;;32.42;17.67;;;;;;;8.86;66.30;98679.94;5088841;28;20093;-68
2022/10/21 08:36:23;;;;;;;28.42;16.77;;;;;;;8.89;66.65;98671.97;5088866;28;20024;-66
2022/10/21 08:38:50;;;;;;;35.17;19.20;;;;;;;8.92;66.05;98667.88;5072782;28;20055;-66
2022/10/21 08:41:46;;;;;;;35.67;19.55;;;;;;;8.92;65.90;98659.69;5068990;28;20478;-67
2022/10/21 08:44:32;;;;;;;44.55;22.60;;;;;;;8.96;66.02;98655.28;5068617;28;20110;-66
2022/10/21 08:47:05;;;;;;;53.00;24.85;;;;;;;9.03;66.34;98652.22;5069147;28;20044;-66
2022/10/21 08:49:45;;;;;;;56.40;25.55;;;;;;;9.08;66.62;98646.75;5068802;28;20031;-65
2022/10/21 08:52:16;;;;;;;41.95;22.30;;;;;;;9.11;65.87;98646.19;5068503;28;20044;-66
2022/10/21 08:54:49;;;;;;;30.88;19.02;;;;;;;9.17;66.51;98652.44;5086292;28;20482;-66
2022/10/21 08:57:15;;;;;;;36.88;20.42;;;;;;;9.20;66.10;98647.19;5088800;28;20036;-69
2022/10/21 08:59:41;;;;;;;31.92;19.05;;;;;;;9.24;66.29;98653.75;5082104;28;20020;-67
2022/10/21 09:02:28;;;;;;;36.20;20.63;;;;;;;9.24;66.50;98637.31;5063286;28;20044;-68
2022/10/21 09:05:41;;;;;;;34.70;20.60;;;;;;;9.30;66.06;98631.81;5074387;28;20490;-68
2022/10/21 09:08:45;;;;;;;36.10;19.92;;;;;;;9.36;66.66;98627.97;5035189;28;20047;-69
2022/10/21 09:11:20;;;;;;;37.70;20.88;;;;;;;9.42;65.87;98626.81;5067445;28;20651;-68
2022/10/21 09:14:11;;;;;;;33.85;20.08;;;;;;;9.42;66.10;98626.81;5065980;28;20047;-69
2022/10/21 09:16:55;;;;;;;34.78;20.25;;;;;;;9.47;65.79;98632.28;5059174;28;20108;-68
2022/10/21 09:19:48;;;;;;;34.28;20.02;;;;;;;9.57;66.20;98617.69;5071404;28;20033;-70
2022/10/21 09:22:35;;;;;;;34.75;19.45;;;;;;;9.69;66.38;98609.09;5065482;28;20021;-70
2022/10/21 09:25:25;;;;;;;35.53;19.55;;;;;;;9.73;66.01;98610.16;5065820;28;20508;-70
2022/10/21 09:27:51;;;;;;;30.90;18.23;;;;;;;9.80;66.32;98596.13;5054333;28;20060;-69
2022/10/21 09:30:20;;;;;;;31.27;17.50;;;;;;;9.86;66.02;98597.72;5062873;28;20063;-69
2022/10/21 09:32:50;;;;;;;29.73;17.58;;;;;;;9.94;66.25;98596.28;5063290;28;20398;-69
2022/10/21 09:35:33;;;;;;;27.60;16.88;;;;;;;9.99;66.27;98593.47;5057609;28;20505;-67
2022/10/21 09:38:21;;;;;;;27.15;16.20;;;;;;;10.10;65.97;98596.94;5068304;28;20031;-70
2022/10/21 09:40:49;;;;;;;30.75;16.60;;;;;;;10.15;66.53;98591.41;5065427;28;20518;-70
2022/10/21 09:43:16;;;;;;;28.67;16.85;;;;;;;10.22;66.13;98596.53;5068180;28;20029;-69
2022/10/21 09:45:46;;;;;;;29.13;17.15;;;;;;;10.26;66.43;98595.66;5073122;28;20154;-69
2022/10/21 09:48:17;;;;;;;33.20;19.33;;;;;;;10.31;66.24;98597.56;5061938;28;20044;-70
2022/10/21 09:50:45;;;;;;;34.45;18.45;;;;;;;10.35;65.88;98595.88;5063887;28;20037;-68
2022/10/21 09:53:16;;;;;;;36.53;19.52;;;;;;;10.41;66.03;98602.13;5074017;28;20065;-68
2022/10/21 09:55:45;;;;;;;31.52;17.17;;;;;;;10.52;66.27;98603.66;5076107;28;20055;-68
2022/10/21 09:58:37;;;;;;;31.52;17.30;;;;;;;10.61;66.20;98601.06;5065874;28;20040;-68
2022/10/21 10:01:04;;;;;;;29.00;16.05;;;;;;;10.69;66.05;98591.38;5020412;28;20056;-68
2022/10/21 10:03:31;;;;;;;31.50;16.48;;;;;;;10.73;66.00;98589.66;5070564;28;20051;-68
2022/10/21 10:05:57;;;;;;;30.90;16.95;;;;;;;10.82;66.07;98598.06;5069407;28;20020;-68
2022/10/21 10:08:39;;;;;;;33.35;18.35;;;;;;;10.87;65.95;98601.56;5064116;28;20466;-68
2022/10/21 10:11:07;;;;;;;32.33;18.17;;;;;;;10.90;65.58;98602.91;5081201;28;20055;-69
2022/10/21 10:13:54;;;;;;;31.63;17.63;;;;;;;10.93;65.65;98596.81;5056686;28;20363;-70
2022/10/21 10:16:22;;;;;;;33.00;17.63;;;;;;;11.01;66.30;98598.06;5068832;28;20562;-69
2022/10/21 10:19:07;;;;;;;33.33;17.33;;;;;;;11.03;65.48;98606.81;5090422;28;20032;-69
2022/10/21 10:21:32;;;;;;;35.72;19.02;;;;;;;11.08;65.98;98587.56;5090969;28;20146;-68
2022/10/21 10:24:00;;;;;;;34.95;19.02;;;;;;;11.14;65.84;98591.84;5090922;28;20024;-68
2022/10/21 10:26:31;;;;;;;30.05;17.92;;;;;;;11.23;65.94;98582.97;5075551;28;20058;-69
2022/10/21 10:29:06;;;;;;;36.50;18.63;;;;;;;11.32;66.01;98592.97;5079766;28;20507;-71
2022/10/21 10:31:33;;;;;;;34.13;18.30;;;;;;;11.43;65.28;98590.06;5071203;28;20086;-68
2022/10/21 10:34:07;;;;;;;33.58;18.88;;;;;;;11.50;65.08;98587.75;5070924;28;20050;-67
2022/10/21 10:36:38;;;;;;;28.13;16.23;;;;;;;11.59;65.14;98585.13;5070936;28;20032;-67
2022/10/21 10:39:15;;;;;;;30.45;15.40;;;;;;;11.69;65.57;98573.16;5071000;28;20094;-67
2022/10/21 10:41:46;;;;;;;24.83;13.30;;;;;;;11.77;65.10;98569.72;5082217;28;20034;-68
2022/10/21 10:44:26;;;;;;;22.38;12.90;;;;;;;11.86;64.69;98576.16;5070982;28;20025;-67
2022/10/21 10:46:57;;;;;;;24.63;13.50;;;;;;;11.96;64.46;98568.88;5070888;28;20074;-69
2022/10/21 10:49:24;;;;;;;23.70;12.30;;;;;;;12.02;64.74;98560.25;5070212;28;20032;-68
2022/10/21 10:52:10;;;;;;;17.52;11.07;;;;;;;12.14;64.58;98553.44;5053004;28;20393;-68
2022/10/21 10:54:39;;;;;;;20.15;10.13;;;;;;;12.28;64.43;98539.69;5070218;28;20044;-69
2022/10/21 10:57:17;;;;;;;;;;;;;;;12.38;64.50;98550.50;5071281;28;20020;-68
2022/10/21 10:59:47;;;;;;;13.50;8.02;;;;;;;12.47;64.01;98543.13;5082178;28;19923;-67
2022/10/21 11:02:29;;;;;;;15.95;8.50;;;;;;;12.53;63.65;98532.84;5087643;28;20016;-68
2022/10/21 11:05:27;;;;;;;13.77;8.35;;;;;;;12.60;63.12;98530.50;5051724;28;20046;-69
2022/10/21 11:08:32;;;;;;;14.20;7.32;;;;;;;12.71;63.19;98519.25;5070971;28;20056;-68
2022/10/21 11:11:09;;;;;;;11.55;6.97;;;;;;;12.80;63.06;98511.91;5070056;28;20056;-69
2022/10/21 11:13:37;;;;;;;14.07;7.22;;;;;;;12.91;62.77;98506.97;5070314;28;20044;-68
2022/10/21 11:16:35;;;;;;;15.00;7.72;;;;;;;12.98;62.35;98515.63;5069898;28;20065;-68
2022/10/21 11:19:12;;;;;;;11.85;7.40;;;;;;;13.03;61.93;98504.50;5024596;28;20071;-67
2022/10/21 11:21:45;;;;;;;11.20;6.55;;;;;;;13.08;61.55;98493.38;5070106;28;20501;-67
2022/10/21 11:24:32;;;;;;;15.07;6.88;;;;;;;13.17;61.39;98492.63;5070479;28;20024;-68
2022/10/21 11:27:04;;;;;;;12.20;6.50;;;;;;;13.22;61.19;98484.25;5051977;28;20416;-68
2022/10/21 11:30:08;;;;;;;11.18;7.05;;;;;;;13.28;61.31;98491.22;5085561;28;20114;-68
2022/10/21 11:32:49;;;;;;;12.27;7.40;;;;;;;13.35;60.80;98486.09;5065772;28;20040;-68
2022/10/21 11:36:02;;;;;;;12.48;7.50;;;;;;;13.38;60.49;98482.72;5065061;28;20024;-68
2022/10/21 11:38:46;;;;;;;12.20;7.88;;;;;;;13.50;60.54;98471.16;5069825;28;20166;-69